sensor_id;sensor_type;location;lat;lon;timestamp;P1;durP1;ratioP1;P2;durP2;ratioP2
5762;SDS011;2906;53.282;9.508;2022-12-07T00:00:47;40.35;;;16.67;;
5762;SDS011;2906;53.282;9.508;2022-12-07T00:01:48;42.08;;;17.42;;
5762;SDS011;2906;53.282;9.508;2022-12-07T00:02:50;45.20;;;17.85;;
5762;SDS011;2906;53.282;9.508;2022-12-07T00:03:52;43.15;;;18.25;;
5762;SDS011;2906;53.282;9.508;2022-12-07T00:04:54;40.75;;;17.73;;
5762;SDS011;2906;53.282;9.508;2022-12-07T00:05:56;45.88;;;16.33;;
5762;SDS011;2906;53.282;9.508;2022-12-07T00:06:59;40.58;;;18.02;;
5762;SDS011;2906;53.282;9.508;2022-12-07T00:08:01;49.85;;;18.67;;
5762;SDS011;2906;53.282;9.508;2022-12-07T00:09:04;39.25;;;18.10;;
5762;SDS011;2906;53.282;9.508;2022-12-07T00:10:07;37.95;;;17.02;;
5762;SDS011;2906;53.282;9.508;2022-12-07T00:11:10;44.28;;;17.73;;
5762;SDS011;2906;53.282;9.508;2022-12-07T00:12:12;46.05;;;18.08;;
5762;SDS011;2906;53.282;9.508;2022-12-07T00:13:14;41.97;;;17.02;;
5762;SDS011;2906;53.282;9.508;2022-12-07T00:14:16;37.88;;;16.67;;
5762;SDS011;2906;53.282;9.508;2022-12-07T00:15:18;37.40;;;15.90;;
5762;SDS011;2906;53.282;9.508;2022-12-07T00:16:20;45.67;;;17.83;;
5762;SDS011;2906;53.282;9.508;2022-12-07T00:17:23;40.45;;;18.33;;
5762;SDS011;2906;53.282;9.508;2022-12-07T00:18:24;42.03;;;17.60;;
5762;SDS011;2906;53.282;9.508;2022-12-07T00:19:27;40.08;;;17.38;;
5762;SDS011;2906;53.282;9.508;2022-12-07T00:20:28;36.92;;;16.40;;
5762;SDS011;2906;53.282;9.508;2022-12-07T00:21:31;42.30;;;17.38;;
5762;SDS011;2906;53.282;9.508;2022-12-07T00:22:33;42.22;;;15.90;;
5762;SDS011;2906;53.282;9.508;2022-12-07T00:23:36;46.38;;;16.02;;
5762;SDS011;2906;53.282;9.508;2022-12-07T00:24:37;47.40;;;17.92;;
5762;SDS011;2906;53.282;9.508;2022-12-07T00:25:41;47.20;;;16.13;;
5762;SDS011;2906;53.282;9.508;2022-12-07T00:26:42;33.05;;;15.02;;
5762;SDS011;2906;53.282;9.508;2022-12-07T00:27:45;43.58;;;16.25;;
5762;SDS011;2906;53.282;9.508;2022-12-07T00:28:46;40.33;;;16.13;;
5762;SDS011;2906;53.282;9.508;2022-12-07T00:29:49;39.30;;;15.98;;
5762;SDS011;2906;53.282;9.508;2022-12-07T00:30:50;34.97;;;15.57;;
5762;SDS011;2906;53.282;9.508;2022-12-07T00:31:52;37.00;;;15.15;;
5762;SDS011;2906;53.282;9.508;2022-12-07T00:32:54;40.15;;;16.40;;
5762;SDS011;2906;53.282;9.508;2022-12-07T00:33:56;35.45;;;15.13;;
5762;SDS011;2906;53.282;9.508;2022-12-07T00:34:58;34.20;;;15.27;;
5762;SDS011;2906;53.282;9.508;2022-12-07T00:36:01;38.72;;;15.32;;
5762;SDS011;2906;53.282;9.508;2022-12-07T00:37:02;41.80;;;15.52;;
5762;SDS011;2906;53.282;9.508;2022-12-07T00:38:05;34.60;;;14.35;;
5762;SDS011;2906;53.282;9.508;2022-12-07T00:39:10;36.13;;;15.65;;
5762;SDS011;2906;53.282;9.508;2022-12-07T00:40:14;49.17;;;14.85;;
5762;SDS011;2906;53.282;9.508;2022-12-07T00:41:19;33.53;;;14.75;;
5762;SDS011;2906;53.282;9.508;2022-12-07T00:42:25;38.45;;;15.15;;
5762;SDS011;2906;53.282;9.508;2022-12-07T00:43:26;36.17;;;14.45;;
5762;SDS011;2906;53.282;9.508;2022-12-07T00:44:29;42.60;;;14.30;;
5762;SDS011;2906;53.282;9.508;2022-12-07T00:45:30;32.97;;;13.95;;
5762;SDS011;2906;53.282;9.508;2022-12-07T00:46:33;31.67;;;13.15;;
5762;SDS011;2906;53.282;9.508;2022-12-07T00:47:34;36.85;;;14.85;;
5762;SDS011;2906;53.282;9.508;2022-12-07T00:48:36;37.05;;;14.55;;
5762;SDS011;2906;53.282;9.508;2022-12-07T00:49:38;38.20;;;15.40;;
5762;SDS011;2906;53.282;9.508;2022-12-07T00:50:40;35.00;;;13.52;;
5762;SDS011;2906;53.282;9.508;2022-12-07T00:51:41;31.52;;;13.95;;
5762;SDS011;2906;53.282;9.508;2022-12-07T00:52:44;31.38;;;13.82;;
5762;SDS011;2906;53.282;9.508;2022-12-07T00:53:45;31.42;;;13.32;;
5762;SDS011;2906;53.282;9.508;2022-12-07T00:54:49;30.23;;;12.75;;
5762;SDS011;2906;53.282;9.508;2022-12-07T00:55:50;29.02;;;12.13;;
5762;SDS011;2906;53.282;9.508;2022-12-07T00:56:55;37.55;;;13.02;;
5762;SDS011;2906;53.282;9.508;2022-12-07T00:57:56;37.03;;;13.63;;
5762;SDS011;2906;53.282;9.508;2022-12-07T00:59:03;30.85;;;12.88;;
5762;SDS011;2906;53.282;9.508;2022-12-07T01:00:06;33.50;;;12.80;;
5762;SDS011;2906;53.282;9.508;2022-12-07T01:01:08;29.65;;;12.85;;
5762;SDS011;2906;53.282;9.508;2022-12-07T01:02:10;30.92;;;12.82;;
5762;SDS011;2906;53.282;9.508;2022-12-07T01:03:14;29.90;;;13.63;;
5762;SDS011;2906;53.282;9.508;2022-12-07T01:04:16;38.75;;;12.65;;
5762;SDS011;2906;53.282;9.508;2022-12-07T01:05:18;27.67;;;12.63;;
5762;SDS011;2906;53.282;9.508;2022-12-07T01:06:20;30.88;;;12.05;;
5762;SDS011;2906;53.282;9.508;2022-12-07T01:07:22;32.20;;;12.70;;
5762;SDS011;2906;53.282;9.508;2022-12-07T01:08:24;34.08;;;11.98;;
5762;SDS011;2906;53.282;9.508;2022-12-07T01:09:34;31.67;;;12.98;;
5762;SDS011;2906;53.282;9.508;2022-12-07T01:10:36;34.40;;;13.00;;
5762;SDS011;2906;53.282;9.508;2022-12-07T01:11:38;28.75;;;12.85;;
5762;SDS011;2906;53.282;9.508;2022-12-07T01:12:41;29.00;;;11.98;;
5762;SDS011;2906;53.282;9.508;2022-12-07T01:13:44;34.35;;;13.20;;
5762;SDS011;2906;53.282;9.508;2022-12-07T01:14:46;27.98;;;12.07;;
5762;SDS011;2906;53.282;9.508;2022-12-07T01:15:48;30.75;;;11.52;;
5762;SDS011;2906;53.282;9.508;2022-12-07T01:18:36;25.35;;;10.45;;
5762;SDS011;2906;53.282;9.508;2022-12-07T01:19:58;28.00;;;10.90;;
5762;SDS011;2906;53.282;9.508;2022-12-07T01:21:34;25.27;;;10.23;;
5762;SDS011;2906;53.282;9.508;2022-12-07T01:23:33;28.27;;;11.38;;
5762;SDS011;2906;53.282;9.508;2022-12-07T01:24:57;26.92;;;11.25;;
5762;SDS011;2906;53.282;9.508;2022-12-07T01:29:52;29.38;;;11.30;;
5762;SDS011;2906;53.282;9.508;2022-12-07T01:31:42;29.75;;;10.80;;
5762;SDS011;2906;53.282;9.508;2022-12-07T01:33:05;22.45;;;9.82;;
5762;SDS011;2906;53.282;9.508;2022-12-07T01:34:07;37.70;;;10.15;;
5762;SDS011;2906;53.282;9.508;2022-12-07T01:35:09;32.35;;;9.82;;
5762;SDS011;2906;53.282;9.508;2022-12-07T01:36:13;26.30;;;9.93;;
5762;SDS011;2906;53.282;9.508;2022-12-07T01:37:15;26.02;;;10.02;;
5762;SDS011;2906;53.282;9.508;2022-12-07T01:38:17;24.73;;;10.05;;
5762;SDS011;2906;53.282;9.508;2022-12-07T01:39:18;28.80;;;10.07;;
5762;SDS011;2906;53.282;9.508;2022-12-07T01:40:21;23.77;;;9.68;;
5762;SDS011;2906;53.282;9.508;2022-12-07T01:41:23;28.98;;;9.68;;
5762;SDS011;2906;53.282;9.508;2022-12-07T01:42:25;28.52;;;10.57;;
5762;SDS011;2906;53.282;9.508;2022-12-07T01:43:27;22.65;;;8.38;;
5762;SDS011;2906;53.282;9.508;2022-12-07T01:44:30;32.53;;;10.25;;
5762;SDS011;2906;53.282;9.508;2022-12-07T01:45:41;23.95;;;8.65;;
5762;SDS011;2906;53.282;9.508;2022-12-07T01:46:44;23.52;;;9.27;;
5762;SDS011;2906;53.282;9.508;2022-12-07T01:47:46;22.23;;;9.10;;
5762;SDS011;2906;53.282;9.508;2022-12-07T01:48:50;21.80;;;8.05;;
5762;SDS011;2906;53.282;9.508;2022-12-07T01:49:51;20.63;;;8.30;;
5762;SDS011;2906;53.282;9.508;2022-12-07T01:50:54;21.45;;;8.70;;
5762;SDS011;2906;53.282;9.508;2022-12-07T01:52:00;26.85;;;8.68;;
5762;SDS011;2906;53.282;9.508;2022-12-07T01:53:04;21.60;;;6.93;;
5762;SDS011;2906;53.282;9.508;2022-12-07T01:54:07;21.88;;;7.45;;
5762;SDS011;2906;53.282;9.508;2022-12-07T01:55:10;20.55;;;7.88;;
5762;SDS011;2906;53.282;9.508;2022-12-07T01:56:14;22.92;;;8.23;;
5762;SDS011;2906;53.282;9.508;2022-12-07T01:57:19;21.48;;;8.77;;
5762;SDS011;2906;53.282;9.508;2022-12-07T01:58:20;24.10;;;8.20;;
5762;SDS011;2906;53.282;9.508;2022-12-07T01:59:25;24.33;;;8.63;;
5762;SDS011;2906;53.282;9.508;2022-12-07T02:00:26;24.98;;;7.93;;
5762;SDS011;2906;53.282;9.508;2022-12-07T02:01:30;21.85;;;7.20;;
5762;SDS011;2906;53.282;9.508;2022-12-07T02:02:32;22.05;;;8.15;;
5762;SDS011;2906;53.282;9.508;2022-12-07T02:03:36;21.15;;;7.70;;
5762;SDS011;2906;53.282;9.508;2022-12-07T02:04:38;22.27;;;7.32;;
5762;SDS011;2906;53.282;9.508;2022-12-07T02:05:41;23.98;;;7.85;;
5762;SDS011;2906;53.282;9.508;2022-12-07T02:06:43;21.83;;;7.60;;
5762;SDS011;2906;53.282;9.508;2022-12-07T02:07:47;17.25;;;6.43;;
5762;SDS011;2906;53.282;9.508;2022-12-07T02:08:48;16.60;;;6.72;;
5762;SDS011;2906;53.282;9.508;2022-12-07T02:09:51;21.83;;;7.88;;
5762;SDS011;2906;53.282;9.508;2022-12-07T02:10:52;24.95;;;10.15;;
5762;SDS011;2906;53.282;9.508;2022-12-07T02:11:54;29.08;;;9.07;;
5762;SDS011;2906;53.282;9.508;2022-12-07T02:12:58;22.25;;;8.30;;
5762;SDS011;2906;53.282;9.508;2022-12-07T02:14:00;33.40;;;7.43;;
5762;SDS011;2906;53.282;9.508;2022-12-07T02:15:02;24.48;;;7.35;;
5762;SDS011;2906;53.282;9.508;2022-12-07T02:16:09;17.33;;;7.07;;
5762;SDS011;2906;53.282;9.508;2022-12-07T02:17:14;17.95;;;5.95;;
5762;SDS011;2906;53.282;9.508;2022-12-07T02:18:22;15.70;;;6.20;;
5762;SDS011;2906;53.282;9.508;2022-12-07T02:19:29;17.25;;;6.80;;
5762;SDS011;2906;53.282;9.508;2022-12-07T02:20:38;15.68;;;5.82;;
5762;SDS011;2906;53.282;9.508;2022-12-07T02:21:42;17.30;;;6.30;;
5762;SDS011;2906;53.282;9.508;2022-12-07T02:22:52;21.38;;;7.15;;
5762;SDS011;2906;53.282;9.508;2022-12-07T02:24:01;21.20;;;6.60;;
5762;SDS011;2906;53.282;9.508;2022-12-07T02:25:07;20.90;;;6.38;;
5762;SDS011;2906;53.282;9.508;2022-12-07T02:26:19;27.20;;;6.95;;
5762;SDS011;2906;53.282;9.508;2022-12-07T02:27:29;17.48;;;6.28;;
5762;SDS011;2906;53.282;9.508;2022-12-07T02:28:33;18.25;;;6.15;;
5762;SDS011;2906;53.282;9.508;2022-12-07T02:29:40;17.50;;;5.53;;
5762;SDS011;2906;53.282;9.508;2022-12-07T02:30:46;16.00;;;6.22;;
5762;SDS011;2906;53.282;9.508;2022-12-07T02:31:51;18.88;;;6.20;;
5762;SDS011;2906;53.282;9.508;2022-12-07T02:32:57;15.52;;;5.57;;
5762;SDS011;2906;53.282;9.508;2022-12-07T02:34:02;20.20;;;5.57;;
5762;SDS011;2906;53.282;9.508;2022-12-07T02:35:07;17.35;;;5.95;;
5762;SDS011;2906;53.282;9.508;2022-12-07T02:36:12;18.77;;;5.50;;
5762;SDS011;2906;53.282;9.508;2022-12-07T02:37:17;15.50;;;4.70;;
5762;SDS011;2906;53.282;9.508;2022-12-07T02:38:23;15.50;;;5.57;;
5762;SDS011;2906;53.282;9.508;2022-12-07T02:39:28;17.02;;;5.95;;
5762;SDS011;2906;53.282;9.508;2022-12-07T02:40:33;14.60;;;5.30;;
5762;SDS011;2906;53.282;9.508;2022-12-07T02:41:38;17.50;;;4.90;;
5762;SDS011;2906;53.282;9.508;2022-12-07T02:42:42;24.73;;;5.47;;
5762;SDS011;2906;53.282;9.508;2022-12-07T02:43:46;19.67;;;5.70;;
5762;SDS011;2906;53.282;9.508;2022-12-07T02:44:50;19.05;;;4.80;;
5762;SDS011;2906;53.282;9.508;2022-12-07T02:45:56;20.48;;;5.25;;
5762;SDS011;2906;53.282;9.508;2022-12-07T02:47:01;16.75;;;5.63;;
5762;SDS011;2906;53.282;9.508;2022-12-07T02:48:04;14.60;;;4.93;;
5762;SDS011;2906;53.282;9.508;2022-12-07T02:49:07;16.60;;;5.20;;
5762;SDS011;2906;53.282;9.508;2022-12-07T02:50:09;17.48;;;4.97;;
5762;SDS011;2906;53.282;9.508;2022-12-07T02:51:12;15.77;;;4.78;;
5762;SDS011;2906;53.282;9.508;2022-12-07T02:52:13;19.05;;;5.20;;
5762;SDS011;2906;53.282;9.508;2022-12-07T02:54:32;19.63;;;5.13;;
5762;SDS011;2906;53.282;9.508;2022-12-07T02:55:36;18.13;;;4.60;;
5762;SDS011;2906;53.282;9.508;2022-12-07T02:56:39;18.50;;;4.80;;
5762;SDS011;2906;53.282;9.508;2022-12-07T02:57:49;27.52;;;6.55;;
5762;SDS011;2906;53.282;9.508;2022-12-07T02:58:54;18.58;;;5.18;;
5762;SDS011;2906;53.282;9.508;2022-12-07T03:00:03;10.82;;;4.00;;
5762;SDS011;2906;53.282;9.508;2022-12-07T03:01:08;15.20;;;5.22;;
5762;SDS011;2906;53.282;9.508;2022-12-07T03:02:15;12.23;;;4.32;;
5762;SDS011;2906;53.282;9.508;2022-12-07T03:03:18;15.18;;;4.63;;
5762;SDS011;2906;53.282;9.508;2022-12-07T03:04:27;16.55;;;5.10;;
5762;SDS011;2906;53.282;9.508;2022-12-07T03:05:36;13.65;;;4.53;;
5762;SDS011;2906;53.282;9.508;2022-12-07T03:06:46;21.92;;;3.97;;
5762;SDS011;2906;53.282;9.508;2022-12-07T03:07:51;22.77;;;6.78;;
5762;SDS011;2906;53.282;9.508;2022-12-07T03:08:57;14.45;;;4.55;;
5762;SDS011;2906;53.282;9.508;2022-12-07T03:10:02;18.05;;;4.55;;
5762;SDS011;2906;53.282;9.508;2022-12-07T03:11:06;18.45;;;5.45;;
5762;SDS011;2906;53.282;9.508;2022-12-07T03:12:09;14.45;;;4.50;;
5762;SDS011;2906;53.282;9.508;2022-12-07T03:13:16;13.40;;;4.95;;
5762;SDS011;2906;53.282;9.508;2022-12-07T03:14:21;16.67;;;4.60;;
5762;SDS011;2906;53.282;9.508;2022-12-07T03:15:27;16.88;;;5.30;;
5762;SDS011;2906;53.282;9.508;2022-12-07T03:16:31;14.02;;;4.25;;
5762;SDS011;2906;53.282;9.508;2022-12-07T03:17:36;13.60;;;4.60;;
5762;SDS011;2906;53.282;9.508;2022-12-07T03:18:41;13.15;;;3.80;;
5762;SDS011;2906;53.282;9.508;2022-12-07T03:19:45;16.02;;;3.95;;
5762;SDS011;2906;53.282;9.508;2022-12-07T03:20:48;18.58;;;4.80;;
5762;SDS011;2906;53.282;9.508;2022-12-07T03:21:53;23.52;;;4.30;;
5762;SDS011;2906;53.282;9.508;2022-12-07T03:22:56;14.82;;;3.95;;
5762;SDS011;2906;53.282;9.508;2022-12-07T03:24:00;21.65;;;4.90;;
5762;SDS011;2906;53.282;9.508;2022-12-07T03:25:05;18.17;;;3.70;;
5762;SDS011;2906;53.282;9.508;2022-12-07T03:26:08;23.23;;;4.00;;
5762;SDS011;2906;53.282;9.508;2022-12-07T03:27:12;22.77;;;3.60;;
5762;SDS011;2906;53.282;9.508;2022-12-07T03:28:17;14.77;;;4.15;;
5762;SDS011;2906;53.282;9.508;2022-12-07T03:29:20;12.85;;;3.67;;
5762;SDS011;2906;53.282;9.508;2022-12-07T03:30:27;15.05;;;4.53;;
5762;SDS011;2906;53.282;9.508;2022-12-07T03:31:31;17.50;;;3.53;;
5762;SDS011;2906;53.282;9.508;2022-12-07T03:32:35;35.85;;;4.80;;
5762;SDS011;2906;53.282;9.508;2022-12-07T03:33:39;16.25;;;3.63;;
5762;SDS011;2906;53.282;9.508;2022-12-07T03:34:43;12.63;;;3.33;;
5762;SDS011;2906;53.282;9.508;2022-12-07T03:35:47;16.90;;;3.55;;
5762;SDS011;2906;53.282;9.508;2022-12-07T03:36:52;14.10;;;3.90;;
5762;SDS011;2906;53.282;9.508;2022-12-07T03:37:57;18.30;;;3.78;;
5762;SDS011;2906;53.282;9.508;2022-12-07T03:39:02;17.63;;;4.05;;
5762;SDS011;2906;53.282;9.508;2022-12-07T03:40:06;14.35;;;3.35;;
5762;SDS011;2906;53.282;9.508;2022-12-07T03:41:11;9.90;;;3.00;;
5762;SDS011;2906;53.282;9.508;2022-12-07T03:42:13;17.13;;;3.40;;
5762;SDS011;2906;53.282;9.508;2022-12-07T03:43:15;13.98;;;3.55;;
5762;SDS011;2906;53.282;9.508;2022-12-07T03:44:17;13.90;;;3.15;;
5762;SDS011;2906;53.282;9.508;2022-12-07T03:45:20;15.80;;;3.72;;
5762;SDS011;2906;53.282;9.508;2022-12-07T03:46:27;12.10;;;2.75;;
5762;SDS011;2906;53.282;9.508;2022-12-07T03:47:31;17.80;;;3.88;;
5762;SDS011;2906;53.282;9.508;2022-12-07T03:48:35;16.15;;;3.75;;
5762;SDS011;2906;53.282;9.508;2022-12-07T03:49:40;10.32;;;2.70;;
5762;SDS011;2906;53.282;9.508;2022-12-07T03:50:44;14.05;;;3.47;;
5762;SDS011;2906;53.282;9.508;2022-12-07T03:51:51;12.20;;;2.80;;
5762;SDS011;2906;53.282;9.508;2022-12-07T03:52:56;12.52;;;2.72;;
5762;SDS011;2906;53.282;9.508;2022-12-07T03:54:02;10.23;;;2.65;;
5762;SDS011;2906;53.282;9.508;2022-12-07T03:55:08;11.63;;;2.55;;
5762;SDS011;2906;53.282;9.508;2022-12-07T03:56:12;11.82;;;2.50;;
5762;SDS011;2906;53.282;9.508;2022-12-07T03:57:13;9.15;;;2.42;;
5762;SDS011;2906;53.282;9.508;2022-12-07T03:58:19;12.30;;;3.50;;
5762;SDS011;2906;53.282;9.508;2022-12-07T03:59:21;10.45;;;2.30;;
5762;SDS011;2906;53.282;9.508;2022-12-07T04:00:23;12.75;;;3.90;;
5762;SDS011;2906;53.282;9.508;2022-12-07T04:01:26;12.13;;;3.00;;
5762;SDS011;2906;53.282;9.508;2022-12-07T04:02:29;10.88;;;2.90;;
5762;SDS011;2906;53.282;9.508;2022-12-07T04:03:31;10.90;;;3.63;;
5762;SDS011;2906;53.282;9.508;2022-12-07T04:04:33;14.50;;;3.33;;
5762;SDS011;2906;53.282;9.508;2022-12-07T04:05:35;14.45;;;3.25;;
5762;SDS011;2906;53.282;9.508;2022-12-07T04:06:37;12.15;;;3.30;;
5762;SDS011;2906;53.282;9.508;2022-12-07T04:07:39;13.70;;;3.40;;
5762;SDS011;2906;53.282;9.508;2022-12-07T04:08:41;15.63;;;3.03;;
5762;SDS011;2906;53.282;9.508;2022-12-07T04:09:43;15.43;;;3.22;;
5762;SDS011;2906;53.282;9.508;2022-12-07T04:10:45;14.60;;;3.20;;
5762;SDS011;2906;53.282;9.508;2022-12-07T04:11:46;12.23;;;3.50;;
5762;SDS011;2906;53.282;9.508;2022-12-07T04:12:49;17.20;;;3.80;;
5762;SDS011;2906;53.282;9.508;2022-12-07T04:13:50;14.00;;;2.80;;
5762;SDS011;2906;53.282;9.508;2022-12-07T04:15:07;9.45;;;2.85;;
5762;SDS011;2906;53.282;9.508;2022-12-07T04:16:09;24.13;;;3.58;;
5762;SDS011;2906;53.282;9.508;2022-12-07T04:17:12;14.57;;;3.45;;
5762;SDS011;2906;53.282;9.508;2022-12-07T04:18:16;11.60;;;3.08;;
5762;SDS011;2906;53.282;9.508;2022-12-07T04:19:18;10.82;;;3.10;;
5762;SDS011;2906;53.282;9.508;2022-12-07T04:20:21;11.68;;;2.63;;
5762;SDS011;2906;53.282;9.508;2022-12-07T04:21:26;19.08;;;3.50;;
5762;SDS011;2906;53.282;9.508;2022-12-07T04:22:28;11.75;;;2.90;;
5762;SDS011;2906;53.282;9.508;2022-12-07T04:23:29;13.75;;;2.85;;
5762;SDS011;2906;53.282;9.508;2022-12-07T04:24:32;17.88;;;3.13;;
5762;SDS011;2906;53.282;9.508;2022-12-07T04:25:35;18.10;;;3.15;;
5762;SDS011;2906;53.282;9.508;2022-12-07T04:26:38;12.27;;;3.05;;
5762;SDS011;2906;53.282;9.508;2022-12-07T04:27:39;10.32;;;2.60;;
5762;SDS011;2906;53.282;9.508;2022-12-07T04:28:42;16.15;;;3.55;;
5762;SDS011;2906;53.282;9.508;2022-12-07T04:29:43;17.50;;;3.13;;
5762;SDS011;2906;53.282;9.508;2022-12-07T04:30:46;10.25;;;2.58;;
5762;SDS011;2906;53.282;9.508;2022-12-07T04:31:47;13.80;;;3.15;;
5762;SDS011;2906;53.282;9.508;2022-12-07T04:32:51;19.02;;;2.70;;
5762;SDS011;2906;53.282;9.508;2022-12-07T04:33:53;16.58;;;2.80;;
5762;SDS011;2906;53.282;9.508;2022-12-07T04:34:55;15.88;;;2.38;;
5762;SDS011;2906;53.282;9.508;2022-12-07T04:35:56;11.10;;;2.38;;
5762;SDS011;2906;53.282;9.508;2022-12-07T04:36:59;12.70;;;2.70;;
5762;SDS011;2906;53.282;9.508;2022-12-07T04:38:00;10.75;;;2.63;;
5762;SDS011;2906;53.282;9.508;2022-12-07T04:39:03;16.67;;;2.95;;
5762;SDS011;2906;53.282;9.508;2022-12-07T04:40:05;6.63;;;1.80;;
5762;SDS011;2906;53.282;9.508;2022-12-07T04:41:09;10.63;;;2.45;;
5762;SDS011;2906;53.282;9.508;2022-12-07T04:42:10;14.52;;;2.70;;
5762;SDS011;2906;53.282;9.508;2022-12-07T04:43:13;10.85;;;2.25;;
5762;SDS011;2906;53.282;9.508;2022-12-07T04:44:14;13.23;;;2.75;;
5762;SDS011;2906;53.282;9.508;2022-12-07T04:45:17;13.38;;;2.33;;
5762;SDS011;2906;53.282;9.508;2022-12-07T04:46:18;9.00;;;2.60;;
5762;SDS011;2906;53.282;9.508;2022-12-07T04:47:20;21.83;;;2.00;;
5762;SDS011;2906;53.282;9.508;2022-12-07T04:48:23;11.80;;;1.95;;
5762;SDS011;2906;53.282;9.508;2022-12-07T04:49:25;15.15;;;2.25;;
5762;SDS011;2906;53.282;9.508;2022-12-07T04:50:27;10.70;;;2.15;;
5762;SDS011;2906;53.282;9.508;2022-12-07T04:51:29;11.43;;;1.98;;
5762;SDS011;2906;53.282;9.508;2022-12-07T04:52:31;16.00;;;2.08;;
5762;SDS011;2906;53.282;9.508;2022-12-07T04:53:33;10.93;;;2.45;;
5762;SDS011;2906;53.282;9.508;2022-12-07T04:54:34;11.20;;;2.38;;
5762;SDS011;2906;53.282;9.508;2022-12-07T04:55:36;14.82;;;2.35;;
5762;SDS011;2906;53.282;9.508;2022-12-07T04:56:38;11.75;;;2.25;;
5762;SDS011;2906;53.282;9.508;2022-12-07T04:57:40;15.10;;;2.15;;
5762;SDS011;2906;53.282;9.508;2022-12-07T04:58:42;16.58;;;2.03;;
5762;SDS011;2906;53.282;9.508;2022-12-07T04:59:46;11.77;;;1.90;;
5762;SDS011;2906;53.282;9.508;2022-12-07T05:00:48;16.83;;;2.40;;
5762;SDS011;2906;53.282;9.508;2022-12-07T05:01:50;11.25;;;1.83;;
5762;SDS011;2906;53.282;9.508;2022-12-07T05:02:51;12.85;;;2.08;;
5762;SDS011;2906;53.282;9.508;2022-12-07T05:03:55;14.95;;;2.08;;
5762;SDS011;2906;53.282;9.508;2022-12-07T05:04:57;7.38;;;1.65;;
5762;SDS011;2906;53.282;9.508;2022-12-07T05:05:59;11.25;;;1.55;;
5762;SDS011;2906;53.282;9.508;2022-12-07T05:07:01;10.85;;;1.65;;
5762;SDS011;2906;53.282;9.508;2022-12-07T05:08:03;8.48;;;1.35;;
5762;SDS011;2906;53.282;9.508;2022-12-07T05:09:05;10.55;;;1.52;;
5762;SDS011;2906;53.282;9.508;2022-12-07T05:10:07;10.75;;;1.60;;
5762;SDS011;2906;53.282;9.508;2022-12-07T05:11:09;12.10;;;1.77;;
5762;SDS011;2906;53.282;9.508;2022-12-07T05:12:33;15.13;;;1.83;;
5762;SDS011;2906;53.282;9.508;2022-12-07T05:13:34;8.52;;;1.50;;
5762;SDS011;2906;53.282;9.508;2022-12-07T05:14:37;9.85;;;1.90;;
5762;SDS011;2906;53.282;9.508;2022-12-07T05:15:39;10.48;;;2.30;;
5762;SDS011;2906;53.282;9.508;2022-12-07T05:16:43;10.80;;;1.65;;
5762;SDS011;2906;53.282;9.508;2022-12-07T05:17:45;12.25;;;1.75;;
5762;SDS011;2906;53.282;9.508;2022-12-07T05:18:47;8.20;;;1.05;;
5762;SDS011;2906;53.282;9.508;2022-12-07T05:19:50;11.23;;;1.60;;
5762;SDS011;2906;53.282;9.508;2022-12-07T05:20:53;14.48;;;2.22;;
5762;SDS011;2906;53.282;9.508;2022-12-07T05:21:54;12.70;;;1.52;;
5762;SDS011;2906;53.282;9.508;2022-12-07T05:22:57;11.88;;;1.83;;
5762;SDS011;2906;53.282;9.508;2022-12-07T05:23:59;6.18;;;1.00;;
5762;SDS011;2906;53.282;9.508;2022-12-07T05:25:01;10.10;;;1.67;;
5762;SDS011;2906;53.282;9.508;2022-12-07T05:26:02;7.90;;;1.20;;
5762;SDS011;2906;53.282;9.508;2022-12-07T05:27:04;10.20;;;1.38;;
5762;SDS011;2906;53.282;9.508;2022-12-07T05:28:07;6.93;;;0.90;;
5762;SDS011;2906;53.282;9.508;2022-12-07T05:29:10;8.73;;;1.27;;
5762;SDS011;2906;53.282;9.508;2022-12-07T05:30:16;8.65;;;1.55;;
5762;SDS011;2906;53.282;9.508;2022-12-07T05:31:17;9.85;;;1.30;;
5762;SDS011;2906;53.282;9.508;2022-12-07T05:32:19;9.65;;;0.95;;
5762;SDS011;2906;53.282;9.508;2022-12-07T05:33:21;6.80;;;0.90;;
5762;SDS011;2906;53.282;9.508;2022-12-07T05:34:23;11.13;;;1.30;;
5762;SDS011;2906;53.282;9.508;2022-12-07T05:35:26;7.15;;;1.15;;
5762;SDS011;2906;53.282;9.508;2022-12-07T05:36:28;8.57;;;0.73;;
5762;SDS011;2906;53.282;9.508;2022-12-07T05:37:31;11.32;;;1.00;;
5762;SDS011;2906;53.282;9.508;2022-12-07T05:38:34;8.40;;;1.00;;
5762;SDS011;2906;53.282;9.508;2022-12-07T05:39:35;7.25;;;1.10;;
5762;SDS011;2906;53.282;9.508;2022-12-07T05:40:41;8.70;;;1.25;;
5762;SDS011;2906;53.282;9.508;2022-12-07T05:41:42;8.05;;;1.40;;
5762;SDS011;2906;53.282;9.508;2022-12-07T05:42:58;13.48;;;1.52;;
5762;SDS011;2906;53.282;9.508;2022-12-07T05:44:00;8.40;;;1.35;;
5762;SDS011;2906;53.282;9.508;2022-12-07T05:45:02;10.88;;;1.45;;
5762;SDS011;2906;53.282;9.508;2022-12-07T05:46:04;13.20;;;1.55;;
5762;SDS011;2906;53.282;9.508;2022-12-07T05:47:06;8.85;;;1.25;;
5762;SDS011;2906;53.282;9.508;2022-12-07T05:48:08;12.65;;;1.40;;
5762;SDS011;2906;53.282;9.508;2022-12-07T05:49:10;9.02;;;1.50;;
5762;SDS011;2906;53.282;9.508;2022-12-07T05:50:12;7.78;;;1.30;;
5762;SDS011;2906;53.282;9.508;2022-12-07T05:51:15;8.93;;;1.33;;
5762;SDS011;2906;53.282;9.508;2022-12-07T05:52:17;7.28;;;1.33;;
5762;SDS011;2906;53.282;9.508;2022-12-07T05:53:19;7.20;;;1.30;;
5762;SDS011;2906;53.282;9.508;2022-12-07T05:54:21;10.73;;;2.28;;
5762;SDS011;2906;53.282;9.508;2022-12-07T05:55:23;7.68;;;1.38;;
5762;SDS011;2906;53.282;9.508;2022-12-07T05:56:25;7.60;;;1.40;;
5762;SDS011;2906;53.282;9.508;2022-12-07T05:57:27;7.78;;;1.33;;
5762;SDS011;2906;53.282;9.508;2022-12-07T05:58:29;7.95;;;1.10;;
5762;SDS011;2906;53.282;9.508;2022-12-07T05:59:46;10.70;;;1.30;;
5762;SDS011;2906;53.282;9.508;2022-12-07T06:00:47;14.75;;;2.00;;
5762;SDS011;2906;53.282;9.508;2022-12-07T06:01:49;12.57;;;1.75;;
5762;SDS011;2906;53.282;9.508;2022-12-07T06:02:51;13.15;;;1.67;;
5762;SDS011;2906;53.282;9.508;2022-12-07T06:03:52;13.20;;;2.10;;
5762;SDS011;2906;53.282;9.508;2022-12-07T06:04:54;9.57;;;1.90;;
5762;SDS011;2906;53.282;9.508;2022-12-07T06:05:57;8.45;;;1.50;;
5762;SDS011;2906;53.282;9.508;2022-12-07T06:06:59;9.45;;;1.55;;
5762;SDS011;2906;53.282;9.508;2022-12-07T06:08:02;9.32;;;1.55;;
5762;SDS011;2906;53.282;9.508;2022-12-07T06:09:03;15.45;;;1.50;;
5762;SDS011;2906;53.282;9.508;2022-12-07T06:10:06;7.43;;;1.33;;
5762;SDS011;2906;53.282;9.508;2022-12-07T06:11:08;11.80;;;1.83;;
5762;SDS011;2906;53.282;9.508;2022-12-07T06:12:25;11.32;;;2.63;;
5762;SDS011;2906;53.282;9.508;2022-12-07T06:13:34;12.40;;;1.90;;
5762;SDS011;2906;53.282;9.508;2022-12-07T06:14:35;15.25;;;2.33;;
5762;SDS011;2906;53.282;9.508;2022-12-07T06:15:37;11.82;;;2.40;;
5762;SDS011;2906;53.282;9.508;2022-12-07T06:16:39;11.20;;;2.17;;
5762;SDS011;2906;53.282;9.508;2022-12-07T06:17:41;9.70;;;2.70;;
5762;SDS011;2906;53.282;9.508;2022-12-07T06:18:44;13.32;;;2.67;;
5762;SDS011;2906;53.282;9.508;2022-12-07T06:19:45;12.25;;;2.28;;
5762;SDS011;2906;53.282;9.508;2022-12-07T06:20:48;12.43;;;2.47;;
5762;SDS011;2906;53.282;9.508;2022-12-07T06:21:50;14.07;;;2.92;;
5762;SDS011;2906;53.282;9.508;2022-12-07T06:22:55;10.13;;;2.20;;
5762;SDS011;2906;53.282;9.508;2022-12-07T06:23:57;9.27;;;2.03;;
5762;SDS011;2906;53.282;9.508;2022-12-07T06:24:58;11.00;;;2.05;;
5762;SDS011;2906;53.282;9.508;2022-12-07T06:26:01;8.48;;;1.85;;
5762;SDS011;2906;53.282;9.508;2022-12-07T06:27:04;11.68;;;2.35;;
5762;SDS011;2906;53.282;9.508;2022-12-07T06:28:07;10.63;;;2.50;;
5762;SDS011;2906;53.282;9.508;2022-12-07T06:29:09;15.70;;;2.10;;
5762;SDS011;2906;53.282;9.508;2022-12-07T06:30:11;11.65;;;2.10;;
5762;SDS011;2906;53.282;9.508;2022-12-07T06:31:13;10.32;;;1.83;;
5762;SDS011;2906;53.282;9.508;2022-12-07T06:32:15;10.63;;;2.25;;
5762;SDS011;2906;53.282;9.508;2022-12-07T06:33:20;11.98;;;1.65;;
5762;SDS011;2906;53.282;9.508;2022-12-07T06:34:22;9.45;;;1.75;;
5762;SDS011;2906;53.282;9.508;2022-12-07T06:35:24;10.68;;;1.80;;
5762;SDS011;2906;53.282;9.508;2022-12-07T06:36:25;9.27;;;1.95;;
5762;SDS011;2906;53.282;9.508;2022-12-07T06:37:28;14.32;;;1.85;;